Lee Center, IL (61331)

11:01 PM CDT on September 04, 2015 (GMT -0500)
Lee Co EMA Amboy Site | | Change Station
CLOSE
Current Station
Personal Weather Station
Location: Amboy, IL
Elevation: 765 ft
Nearby Weather Stations

Elev 765 ft 41.71 °N, 89.32 °W | Updated 1 minute ago

Clear
Clear
75.3 °F
Feels Like 75 °F
N
4.0
Wind Variable Wind from East
Gusts 22.0 mph

Today
High -- | Low -- °F
--% Chance of Precip.
Yesterday
High -- | Low -- °F
Precip. -- in
6:25 AM 7:25 PM
Waning Gibbous, 53% visible
Pressure 30.05 in
Visibility 7.0 miles
Clouds Scattered Clouds 5000 ft
Heat Index 75 °F
Dew Point 72 °F
Humidity 89%
Rainfall 0.00 in
Snow Depth Not available.
UV 0 out of 12
Pollen 9.60 out of 12
Air Quality Not available.
Flu Activity Not available.
METAR KRPJ 050335Z AUTO 11005KT 7SM SCT050 22/20 A3005 RMK AO2 T02210202
Pressure 30.05 in
Visibility 7.0 miles
Clouds Scattered Clouds 5000 ft
Heat Index 75 °F
Dew Point 72 °F
Humidity 89%
Rainfall 0.00 in
Snow Depth Not available.
UV 0 out of 12
Pollen 9.60 out of 12
Air Quality Not available.
Flu Activity Not available.
METAR KRPJ 050335Z AUTO 11005KT 7SM SCT050 22/20 A3005 RMK AO2 T02210202

10-Day Weather Forecast

×

Almanac

Astronomy

Sep. 04, 2015 Rise Set
Actual Time
Civil Twilight
Nautical Twilight
Astronomical Twilight
Moon
Length of Visible Light
Length of Day
Tomorrow will be .
, % of the Moon is Illuminated

Today's Extremes

State Highs State Lows

Community

WunderPhotos

Upload Photos

1,852,418 photos uploaded!

WunderBlogs® & News

Nearby

Air Quality

  Air Quality AQ Index Pollutant
Not available.

Snow Depth

Station Depth Elevation

Earthquake Activity

City Distance Mag. Time & Date
Minimum magnitude displayed is 2.5.

Coastal Water Temperatures

Place Temperature

Stations

Nearby Weather Stations

Station Location Temp. Windchill Dew Point Humidity Wind Precip. Elev Updated Type